createdAt,value
2022-08-22T00:00:25.112Z,22.45
2022-08-22T00:02:44.018Z,17.65
2022-08-22T00:03:17.429Z,18.05
2022-08-22T00:05:57.475Z,21.83
2022-08-22T00:08:39.598Z,22.65
2022-08-22T00:11:30.497Z,24.00
2022-08-22T00:14:12.180Z,19.55
2022-08-22T00:16:54.628Z,24.65
2022-08-22T00:19:41.749Z,24.55
2022-08-22T00:22:20.904Z,23.50
2022-08-22T00:25:26.117Z,24.88
2022-08-22T00:28:06.506Z,24.80
2022-08-22T00:30:44.573Z,25.58
2022-08-22T00:33:34.928Z,22.80
2022-08-22T00:36:33.771Z,23.67
2022-08-22T00:39:13.142Z,26.25
2022-08-22T00:42:29.335Z,23.95
2022-08-22T00:45:16.918Z,24.75
2022-08-22T00:48:10.546Z,26.27
2022-08-22T00:50:49.436Z,24.73
2022-08-22T00:53:37.757Z,22.05
2022-08-22T00:56:47.385Z,36.10
2022-08-22T00:59:28.608Z,35.90
2022-08-22T01:01:55.417Z,30.42
2022-08-22T01:04:47.179Z,26.52
2022-08-22T01:07:41.920Z,28.50
2022-08-22T01:10:30.320Z,29.35
2022-08-22T01:13:15.153Z,35.33
2022-08-22T01:15:43.554Z,29.55
2022-08-22T01:18:46.061Z,29.52
2022-08-22T01:21:41.822Z,28.30
2022-08-22T01:25:01.909Z,26.50
2022-08-22T01:27:48.903Z,24.20
2022-08-22T01:30:44.636Z,24.88
2022-08-22T01:33:48.804Z,28.35
2022-08-22T01:36:40.425Z,25.05
2022-08-22T01:39:21.073Z,25.83
2022-08-22T01:42:17.074Z,23.38
2022-08-22T01:45:38.134Z,23.75
2022-08-22T01:48:26.056Z,27.33
2022-08-22T01:51:21.166Z,23.30
2022-08-22T01:54:03.425Z,19.20
2022-08-22T01:56:40.109Z,27.25
2022-08-22T01:59:21.101Z,21.65
2022-08-22T02:02:45.787Z,25.73
2022-08-22T02:05:27.697Z,26.98
2022-08-22T02:08:24.169Z,29.85
2022-08-22T02:11:04.891Z,28.80
2022-08-22T02:14:03.595Z,33.55
2022-08-22T02:16:40.288Z,29.10
2022-08-22T02:19:16.040Z,31.55
2022-08-22T02:22:01.681Z,29.30
2022-08-22T02:24:34.117Z,27.42
2022-08-22T02:27:20.161Z,27.35
2022-08-22T02:29:58.432Z,29.00
2022-08-22T02:32:40.476Z,31.50
2022-08-22T02:37:48.849Z,35.10
2022-08-22T02:40:41.890Z,35.30
2022-08-22T02:43:12.850Z,37.55
2022-08-22T02:46:08.940Z,44.80
2022-08-22T02:48:47.973Z,46.97
2022-08-22T02:51:53.840Z,50.42
2022-08-22T02:54:35.726Z,47.58
2022-08-22T02:57:22.987Z,57.00
2022-08-22T03:00:31.207Z,50.65
2022-08-22T03:02:59.169Z,54.25
2022-08-22T03:05:38.293Z,57.63
2022-08-22T03:08:12.877Z,56.47
2022-08-22T03:10:45.796Z,62.72
2022-08-22T03:13:38.901Z,65.53
2022-08-22T03:16:31.842Z,59.67
2022-08-22T03:19:24.329Z,66.28
2022-08-22T03:22:03.146Z,67.15
2022-08-22T03:24:56.998Z,64.82
2022-08-22T03:27:33.897Z,70.47
2022-08-22T03:30:32.117Z,65.65
2022-08-22T03:33:14.237Z,72.57
2022-08-22T03:35:47.098Z,70.20
2022-08-22T03:38:23.668Z,70.25
2022-08-22T03:41:08.851Z,72.57
2022-08-22T03:44:13.028Z,77.55
2022-08-22T03:47:01.639Z,67.97
2022-08-22T03:49:47.117Z,75.38
2022-08-22T03:52:57.141Z,73.65
2022-08-22T03:55:43.096Z,69.68
2022-08-22T03:58:47.476Z,75.65
2022-08-22T04:01:17.427Z,73.63
2022-08-22T04:03:56.232Z,69.90
2022-08-22T04:06:44.739Z,75.65
2022-08-22T04:12:20.418Z,65.88
2022-08-22T04:14:50.268Z,73.53
2022-08-22T04:17:38.794Z,73.57
2022-08-22T04:20:21.026Z,68.30
2022-08-22T04:22:52.621Z,73.13
2022-08-22T04:25:29.941Z,73.18
2022-08-22T04:28:05.586Z,69.82
2022-08-22T04:30:56.269Z,75.70
2022-08-22T04:33:25.923Z,74.00
2022-08-22T04:36:07.874Z,69.32
2022-08-22T04:41:15.482Z,69.95
2022-08-22T04:43:53.513Z,76.82
2022-08-22T04:46:47.868Z,75.18
2022-08-22T04:49:29.365Z,71.90
2022-08-22T04:52:06.099Z,72.90
2022-08-22T04:54:38.830Z,73.53
2022-08-22T04:57:20.230Z,76.57
2022-08-22T04:59:47.398Z,65.55
2022-08-22T05:02:22.890Z,76.25
2022-08-22T05:05:04.234Z,68.35
2022-08-22T05:07:44.590Z,68.03
2022-08-22T05:10:19.604Z,70.70
2022-08-22T05:12:53.981Z,70.35
2022-08-22T05:15:26.423Z,67.78
2022-08-22T05:18:00.031Z,62.38
2022-08-22T05:20:28.870Z,72.85
2022-08-22T05:23:17.383Z,70.20
2022-08-22T05:25:49.653Z,64.15
2022-08-22T05:28:44.601Z,65.30
2022-08-22T05:31:32.011Z,67.45
2022-08-22T05:34:04.815Z,68.57
2022-08-22T05:36:37.943Z,72.57
2022-08-22T05:39:16.201Z,67.90
2022-08-22T05:41:44.745Z,64.38
2022-08-22T05:44:26.084Z,67.95
2022-08-22T05:47:29.923Z,64.15
2022-08-22T05:50:08.811Z,67.05
2022-08-22T05:53:08.458Z,65.40
2022-08-22T05:56:03.113Z,72.57
2022-08-22T05:58:44.901Z,65.93
2022-08-22T06:01:34.159Z,70.20
2022-08-22T06:04:12.346Z,70.68
2022-08-22T06:07:01.648Z,69.43
2022-08-22T06:09:46.316Z,73.07
2022-08-22T06:12:53.319Z,65.50
2022-08-22T06:15:27.603Z,61.80
2022-08-22T06:18:07.414Z,67.32
2022-08-22T06:21:06.598Z,70.07
2022-08-22T06:23:44.381Z,66.80
2022-08-22T06:26:20.443Z,71.78
2022-08-22T06:28:54.467Z,65.93
2022-08-22T06:31:35.923Z,56.80
2022-08-22T06:34:13.713Z,69.72
2022-08-22T06:36:44.250Z,60.47
2022-08-22T06:39:25.441Z,58.63
2022-08-22T06:42:18.217Z,60.90
2022-08-22T06:44:50.967Z,55.13
2022-08-22T06:47:23.558Z,55.42
2022-08-22T06:49:57.240Z,51.70
2022-08-22T06:52:27.274Z,57.78
2022-08-22T06:55:06.967Z,53.80
2022-08-22T06:57:37.542Z,56.47
2022-08-22T07:00:12.101Z,52.05
2022-08-22T07:02:42.629Z,53.25
2022-08-22T07:05:22.034Z,48.75
2022-08-22T07:07:50.705Z,49.22
2022-08-22T07:10:18.373Z,51.50
2022-08-22T07:12:49.310Z,48.33
2022-08-22T07:15:56.336Z,46.97
2022-08-22T07:18:26.968Z,48.45
2022-08-22T07:20:58.984Z,51.42
2022-08-22T07:23:42.062Z,51.85
2022-08-22T07:26:28.153Z,50.83
2022-08-22T07:29:07.817Z,49.55
2022-08-22T07:31:44.730Z,50.38
2022-08-22T07:34:46.512Z,55.00
2022-08-22T07:37:28.250Z,49.00
2022-08-22T07:40:21.433Z,51.17
2022-08-22T07:42:57.708Z,54.33
2022-08-22T07:45:36.863Z,48.97
2022-08-22T07:48:06.537Z,56.63
2022-08-22T07:50:51.512Z,54.55
2022-08-22T07:53:50.159Z,57.60
2022-08-22T07:56:22.499Z,54.13
2022-08-22T07:58:56.230Z,55.88
2022-08-22T08:01:25.499Z,58.03
2022-08-22T08:04:06.646Z,57.20
2022-08-22T08:06:35.303Z,52.00
2022-08-22T08:09:03.677Z,59.50
2022-08-22T08:11:38.953Z,48.13
2022-08-22T08:14:08.752Z,53.38
2022-08-22T08:16:57.800Z,64.00
2022-08-22T08:19:25.487Z,61.08
2022-08-22T08:21:55.816Z,64.57
2022-08-22T08:24:29.114Z,63.90
2022-08-22T08:27:25.975Z,62.15
2022-08-22T08:29:59.360Z,60.70
2022-08-22T08:32:31.181Z,66.72
2022-08-22T08:34:59.436Z,63.75
2022-08-22T08:37:41.523Z,67.93
2022-08-22T08:40:26.309Z,59.00
2022-08-22T08:43:31.325Z,66.50
2022-08-22T08:46:07.063Z,63.20
2022-08-22T08:49:08.022Z,61.63
2022-08-22T08:52:04.545Z,68.43
2022-08-22T08:54:58.284Z,61.65
2022-08-22T08:57:47.279Z,56.85
2022-08-22T09:00:17.580Z,59.10
2022-08-22T09:03:15.822Z,61.17
2022-08-22T09:06:18.533Z,55.15
2022-08-22T09:08:55.143Z,56.47
2022-08-22T09:11:31.553Z,54.08
2022-08-22T09:14:22.933Z,54.30
2022-08-22T09:17:17.634Z,54.90
2022-08-22T09:19:56.704Z,52.53
2022-08-22T09:22:51.240Z,53.67
2022-08-22T09:25:43.746Z,51.78
2022-08-22T09:28:34.002Z,56.08
2022-08-22T09:31:44.846Z,60.55
2022-08-22T09:34:40.476Z,59.65
2022-08-22T09:37:29.086Z,55.35
2022-08-22T09:40:16.999Z,61.92
2022-08-22T09:42:56.099Z,60.03
2022-08-22T09:45:41.453Z,57.97
2022-08-22T09:48:34.700Z,60.05
2022-08-22T09:51:31.476Z,50.28
2022-08-22T09:54:31.150Z,51.15
2022-08-22T09:57:09.001Z,47.75
2022-08-22T09:59:59.244Z,37.50
2022-08-22T10:02:36.627Z,42.70
2022-08-22T10:05:40.421Z,45.55
2022-08-22T10:08:32.250Z,46.85
2022-08-22T10:11:23.975Z,47.00
2022-08-22T10:14:00.574Z,46.13
2022-08-22T10:17:05.426Z,47.33
2022-08-22T10:19:46.862Z,38.60
2022-08-22T10:22:41.130Z,45.53
2022-08-22T10:25:36.780Z,47.13
2022-08-22T10:28:23.969Z,43.35
2022-08-22T10:31:19.304Z,43.20
2022-08-22T10:33:59.449Z,40.20
2022-08-22T10:36:49.954Z,39.80
2022-08-22T10:39:24.756Z,28.60
2022-08-22T10:42:06.113Z,29.92
2022-08-22T10:44:43.368Z,33.72
2022-08-22T10:47:19.693Z,28.00
2022-08-22T10:49:52.915Z,32.80
2022-08-22T10:52:24.117Z,30.05
2022-08-22T10:55:09.992Z,28.25
2022-08-22T10:58:06.357Z,21.38
2022-08-22T11:00:55.223Z,21.90
2022-08-22T11:03:42.716Z,21.08
2022-08-22T11:06:33.688Z,21.88
2022-08-22T11:09:14.221Z,22.70
2022-08-22T11:11:54.235Z,21.88
2022-08-22T11:14:50.797Z,22.42
2022-08-22T11:17:29.930Z,30.50
2022-08-22T11:20:27.009Z,25.02
2022-08-22T11:23:34.897Z,21.92
2022-08-22T11:26:33.537Z,21.35
2022-08-22T11:29:29.506Z,18.98
2022-08-22T11:32:19.533Z,15.55
2022-08-22T11:35:09.041Z,20.23
2022-08-22T11:37:45.114Z,18.33
2022-08-22T11:40:20.254Z,16.88
2022-08-22T11:42:55.790Z,18.45
2022-08-22T11:45:34.682Z,21.95
2022-08-22T11:48:16.559Z,13.68
2022-08-22T11:50:49.343Z,12.05
2022-08-22T11:53:24.170Z,16.00
2022-08-22T11:55:54.072Z,20.80
2022-08-22T11:58:33.192Z,20.50
2022-08-22T12:01:18.362Z,22.55
2022-08-22T12:03:58.556Z,22.67
2022-08-22T12:06:56.265Z,20.02
2022-08-22T12:09:35.920Z,19.38
2022-08-22T12:12:25.989Z,14.60
2022-08-22T12:15:21.455Z,16.92
2022-08-22T12:18:07.212Z,17.15
2022-08-22T12:21:04.500Z,14.25
2022-08-22T12:23:53.140Z,19.10
2022-08-22T12:26:26.008Z,20.23
2022-08-22T12:29:16.792Z,19.67
2022-08-22T12:31:58.873Z,24.10
2022-08-22T12:34:47.310Z,26.17
2022-08-22T12:37:53.101Z,29.67
2022-08-22T12:40:38.839Z,32.63
2022-08-22T12:43:18.751Z,23.85
2022-08-22T12:45:54.006Z,24.25
2022-08-22T12:48:52.219Z,26.38
2022-08-22T12:51:44.369Z,24.23
2022-08-22T12:54:30.414Z,24.83
2022-08-22T12:57:24.077Z,18.30
2022-08-22T12:59:58.317Z,22.65
2022-08-22T13:02:33.066Z,17.85
2022-08-22T13:05:24.972Z,22.67
2022-08-22T13:08:04.607Z,20.65
2022-08-22T13:10:41.030Z,18.58
2022-08-22T13:13:12.694Z,18.13
2022-08-22T13:15:53.835Z,29.20
2022-08-22T13:18:30.608Z,13.98
2022-08-22T13:21:02.622Z,15.55
2022-08-22T13:23:43.443Z,20.27
2022-08-22T13:26:32.176Z,17.08
2022-08-22T13:29:25.744Z,16.42
2022-08-22T13:32:01.893Z,17.80
2022-08-22T13:34:44.573Z,23.52
2022-08-22T13:37:28.780Z,14.88
2022-08-22T13:40:05.923Z,18.23
2022-08-22T13:42:40.167Z,15.95
2022-08-22T13:45:15.601Z,18.73
2022-08-22T13:48:11.428Z,18.48
2022-08-22T13:51:02.216Z,19.42
2022-08-22T13:53:41.617Z,16.47
2022-08-22T13:56:21.130Z,17.67
2022-08-22T13:58:52.826Z,20.98
2022-08-22T14:01:35.993Z,20.25
2022-08-22T14:04:28.823Z,19.20
2022-08-22T14:07:04.382Z,15.13
2022-08-22T14:10:00.154Z,16.30
2022-08-22T14:12:51.109Z,17.58
2022-08-22T14:15:32.063Z,18.00
2022-08-22T14:18:11.965Z,16.92
2022-08-22T14:20:41.153Z,19.83
2022-08-22T14:23:14.115Z,21.92
2022-08-22T14:25:43.768Z,20.02
2022-08-22T14:28:32.228Z,22.70
2022-08-22T14:31:14.377Z,19.40
2022-08-22T14:33:52.750Z,20.30
2022-08-22T14:36:45.831Z,20.95
2022-08-22T14:39:37.152Z,22.48
2022-08-22T14:42:15.405Z,20.35
2022-08-22T14:45:06.537Z,20.20
2022-08-22T14:48:30.396Z,17.23
2022-08-22T14:50:56.434Z,20.30
2022-08-22T14:53:26.553Z,19.53
2022-08-22T14:56:17.984Z,22.00
2022-08-22T15:01:18.939Z,23.13
2022-08-22T15:04:01.448Z,21.88
2022-08-22T15:06:57.881Z,22.27
2022-08-22T15:09:52.453Z,22.55
2022-08-22T15:12:34.668Z,22.35
2022-08-22T15:15:06.737Z,22.17
2022-08-22T15:17:38.785Z,23.23
2022-08-22T15:20:35.226Z,18.40
2022-08-22T15:23:16.456Z,22.42
2022-08-22T15:25:47.009Z,20.70
2022-08-22T15:28:20.116Z,19.45
2022-08-22T15:30:59.347Z,22.35
2022-08-22T15:33:43.345Z,20.23
2022-08-22T15:36:26.393Z,16.10
2022-08-22T15:38:56.719Z,18.65
2022-08-22T15:41:36.735Z,17.52
2022-08-22T15:44:14.708Z,21.10
2022-08-22T15:46:57.919Z,15.82
2022-08-22T15:49:35.963Z,20.67
2022-08-22T15:52:15.062Z,18.45
2022-08-22T15:54:54.210Z,15.88
2022-08-22T15:57:38.926Z,29.10
2022-08-22T16:00:45.075Z,16.80
2022-08-22T16:03:30.982Z,15.30
2022-08-22T16:06:07.600Z,15.68
2022-08-22T16:08:37.263Z,19.60
2022-08-22T16:11:04.035Z,18.88
2022-08-22T16:13:30.928Z,21.10
2022-08-22T16:16:07.119Z,23.42
2022-08-22T16:18:33.943Z,21.40
2022-08-22T16:21:27.164Z,21.77
2022-08-22T16:23:54.238Z,19.70
2022-08-22T16:26:24.002Z,24.35
2022-08-22T16:28:58.771Z,21.42
2022-08-22T16:31:37.724Z,17.58
2022-08-22T16:34:16.702Z,20.08
2022-08-22T16:36:51.645Z,20.75
2022-08-22T16:39:21.341Z,21.85
2022-08-22T16:41:54.332Z,18.40
2022-08-22T16:44:43.113Z,23.85
2022-08-22T16:47:15.316Z,19.15
2022-08-22T16:49:51.245Z,18.38
2022-08-22T16:52:21.285Z,12.50
2022-08-22T16:54:58.848Z,19.92
2022-08-22T16:57:33.350Z,13.57
2022-08-22T17:00:05.147Z,15.82
2022-08-22T17:03:08.472Z,20.77
2022-08-22T17:06:13.105Z,18.75
2022-08-22T17:09:03.539Z,18.73
2022-08-22T17:11:45.600Z,15.10
2022-08-22T17:15:04.093Z,18.42
2022-08-22T17:17:46.011Z,17.35
2022-08-22T17:20:26.458Z,16.63
2022-08-22T17:23:00.132Z,21.60
2022-08-22T17:25:47.141Z,22.58
2022-08-22T17:28:16.610Z,16.55
2022-08-22T17:30:58.217Z,17.73
2022-08-22T17:33:56.078Z,18.58
2022-08-22T17:36:41.959Z,18.45
2022-08-22T17:40:19.754Z,22.10
2022-08-22T17:43:08.084Z,16.70
2022-08-22T17:45:59.613Z,21.67
2022-08-22T17:48:39.700Z,19.95
2022-08-22T17:51:28.517Z,24.27
2022-08-22T17:54:15.557Z,20.80
2022-08-22T17:56:52.460Z,24.13
2022-08-22T17:59:39.737Z,21.23
2022-08-22T18:02:16.460Z,18.38
2022-08-22T18:05:04.579Z,18.63
2022-08-22T18:07:46.397Z,14.93
2022-08-22T18:12:54.729Z,21.05
2022-08-22T18:15:45.212Z,15.93
2022-08-22T18:18:30.369Z,16.48
2022-08-22T18:21:11.121Z,18.75
2022-08-22T18:23:44.917Z,16.35
2022-08-22T18:26:48.884Z,15.85
2022-08-22T18:29:52.036Z,16.02
2022-08-22T18:32:28.461Z,19.15
2022-08-22T18:35:02.564Z,15.75
2022-08-22T18:37:31.312Z,14.88
2022-08-22T18:40:06.318Z,16.15
2022-08-22T18:42:48.461Z,18.73
2022-08-22T18:45:44.739Z,13.98
2022-08-22T18:48:59.486Z,17.27
2022-08-22T18:51:38.377Z,17.33
2022-08-22T18:54:05.462Z,19.85
2022-08-22T18:56:35.619Z,17.05
2022-08-22T18:59:28.236Z,14.50
2022-08-22T19:02:36.819Z,18.42
2022-08-22T19:05:28.612Z,17.33
2022-08-22T19:08:33.497Z,16.88
2022-08-22T19:11:09.176Z,15.85
2022-08-22T19:13:45.782Z,16.55
2022-08-22T19:16:22.765Z,16.90
2022-08-22T19:19:01.066Z,15.65
2022-08-22T19:21:51.146Z,17.40
2022-08-22T19:24:20.984Z,19.15
2022-08-22T19:27:09.721Z,16.65
2022-08-22T19:29:36.473Z,18.08
2022-08-22T19:32:12.789Z,19.23
2022-08-22T19:34:46.819Z,15.45
2022-08-22T19:37:32.410Z,17.90
2022-08-22T19:40:44.524Z,20.08
2022-08-22T19:43:32.436Z,17.23
2022-08-22T19:46:03.840Z,18.83
2022-08-22T19:48:52.624Z,19.08
2022-08-22T19:51:19.369Z,19.10
2022-08-22T19:54:01.052Z,20.08
2022-08-22T19:56:51.120Z,14.80
2022-08-22T19:59:20.099Z,20.27
2022-08-22T20:02:07.544Z,16.65
2022-08-22T20:05:02.634Z,18.45
2022-08-22T20:07:53.093Z,20.52
2022-08-22T20:10:23.768Z,21.38
2022-08-22T20:13:02.266Z,18.60
2022-08-22T20:15:31.960Z,16.13
2022-08-22T20:18:47.218Z,18.75
2022-08-22T20:20:59.562Z,19.90
2022-08-22T20:23:31.629Z,20.50
2022-08-22T20:25:59.005Z,18.63
2022-08-22T20:28:38.100Z,21.75
2022-08-22T20:31:11.643Z,19.83
2022-08-22T20:33:42.574Z,20.80
2022-08-22T20:36:27.250Z,19.30
2022-08-22T20:39:00.192Z,20.63
2022-08-22T20:41:40.483Z,18.23
2022-08-22T20:44:47.552Z,19.70
2022-08-22T20:47:26.429Z,22.23
2022-08-22T20:50:11.961Z,19.90
2022-08-22T20:52:51.975Z,17.38
2022-08-22T20:55:31.879Z,20.08
2022-08-22T20:58:03.808Z,18.67
2022-08-22T21:00:35.685Z,17.38
2022-08-22T21:03:33.399Z,18.45
2022-08-22T21:06:14.354Z,18.92
2022-08-22T21:08:43.838Z,25.60
2022-08-22T21:11:39.353Z,22.55
2022-08-22T21:14:21.491Z,21.45
2022-08-22T21:16:48.801Z,21.80
2022-08-22T21:19:21.252Z,25.60
2022-08-22T21:21:48.101Z,23.17
2022-08-22T21:24:15.309Z,23.40
2022-08-22T21:26:54.522Z,21.95
2022-08-22T21:29:26.666Z,22.58
2022-08-22T21:32:14.504Z,21.85
2022-08-22T21:34:44.096Z,25.70
2022-08-22T21:37:18.574Z,21.38
2022-08-22T21:39:53.093Z,21.42
2022-08-22T21:42:35.882Z,21.98
2022-08-22T21:45:09.540Z,28.27
2022-08-22T21:47:40.053Z,23.52
2022-08-22T21:50:12.687Z,27.88
2022-08-22T21:52:53.740Z,30.10
2022-08-22T21:55:43.034Z,29.77
2022-08-22T21:58:12.777Z,29.13
2022-08-22T22:01:02.627Z,30.38
2022-08-22T22:03:38.055Z,34.50
2022-08-22T22:06:06.627Z,38.45
2022-08-22T22:08:33.794Z,34.42
2022-08-22T22:11:04.704Z,34.47
2022-08-22T22:13:33.295Z,35.70
2022-08-22T22:16:00.465Z,39.33
2022-08-22T22:18:32.134Z,30.52
2022-08-22T22:20:59.697Z,36.95
2022-08-22T22:23:27.013Z,34.17
2022-08-22T22:25:56.384Z,35.15
2022-08-22T22:28:40.721Z,34.88
2022-08-22T22:31:08.116Z,34.45
2022-08-22T22:33:38.462Z,37.08
2022-08-22T22:36:10.115Z,31.50
2022-08-22T22:38:38.581Z,40.28
2022-08-22T22:41:05.529Z,32.42
2022-08-22T22:43:32.788Z,33.13
2022-08-22T22:45:59.654Z,33.72
2022-08-22T22:48:26.632Z,35.75
2022-08-22T22:50:54.151Z,36.25
2022-08-22T22:53:37.923Z,35.67
2022-08-22T22:56:06.861Z,33.47
2022-08-22T22:58:36.693Z,31.35
2022-08-22T23:01:25.972Z,34.10
2022-08-22T23:03:56.945Z,29.50
2022-08-22T23:06:26.137Z,31.33
2022-08-22T23:08:53.672Z,34.95
2022-08-22T23:11:24.217Z,32.13
2022-08-22T23:13:51.599Z,35.28
2022-08-22T23:16:23.580Z,34.20
2022-08-22T23:18:50.903Z,32.10
2022-08-22T23:21:24.157Z,32.63
2022-08-22T23:23:51.590Z,34.22
2022-08-22T23:26:18.416Z,33.60
2022-08-22T23:28:45.431Z,35.67
2022-08-22T23:31:19.804Z,37.55
2022-08-22T23:33:46.877Z,29.30
2022-08-22T23:36:20.477Z,36.97
2022-08-22T23:38:48.752Z,30.65
2022-08-22T23:41:17.750Z,34.97
2022-08-22T23:43:47.782Z,31.38
2022-08-22T23:46:16.381Z,34.38
2022-08-22T23:48:43.587Z,29.17
2022-08-22T23:51:12.069Z,31.45
2022-08-22T23:53:39.207Z,35.25
2022-08-22T23:56:19.772Z,30.60
2022-08-22T23:58:49.133Z,34.10
